Green Mountain Falls, Colorado
Current Conditions -  °F | °C
As of 11:58 AM on Monday 20 Oct 2014 (Local Time) from KAFF Reporting Station
Clear Clear  
Wind Chill: 66°   Ceiling: Unl
Heat Index: 66°   Visibility: 10mi
Dew Point: 32°   Wind: 10mph
Humidity: 28%   Direction: 160°SSE
Pressure: 30.24"   Gusts: 18mph
Location:  38.93°N, 105.02°W
Report Text: KAFF 201758Z AUTO 16009G16KT 130V200 10SM CLR 19/00 A3024 RMK AO2 SLP191 T01890001 10189 20017 57009
Loading
Personal Weather Stations






























Interactive Weather Map
Tropical Storm Tracking
New forecast layout! Learn more

10-Day Weather Forecast

Advertisements
Track Severe Weather on mobile